createdAt,value
2022-12-08T00:01:35.399Z,13.72
2022-12-08T00:04:05.177Z,13.68
2022-12-08T00:06:53.112Z,13.68
2022-12-08T00:09:24.214Z,13.42
2022-12-08T00:11:54.071Z,13.56
2022-12-08T00:14:27.185Z,13.53
2022-12-08T00:16:55.516Z,13.47
2022-12-08T00:19:24.340Z,13.80
2022-12-08T00:21:52.484Z,13.82
2022-12-08T00:24:21.139Z,13.47
2022-12-08T00:26:49.387Z,13.79
2022-12-08T00:29:18.053Z,13.41
2022-12-08T00:31:48.045Z,13.47
2022-12-08T00:34:16.634Z,13.46
2022-12-08T00:36:44.827Z,13.81
2022-12-08T00:39:14.437Z,13.47
2022-12-08T00:41:59.841Z,13.39
2022-12-08T00:44:27.810Z,13.39
2022-12-08T00:46:57.215Z,13.91
2022-12-08T00:49:25.683Z,13.60
2022-12-08T00:51:54.012Z,13.87
2022-12-08T00:54:23.377Z,13.94
2022-12-08T00:56:51.628Z,13.55
2022-12-08T00:59:19.973Z,13.60
2022-12-08T01:01:48.716Z,14.00
2022-12-08T01:04:20.216Z,13.85
2022-12-08T01:06:48.959Z,13.64
2022-12-08T01:09:18.342Z,13.81
2022-12-08T01:11:47.069Z,13.63
2022-12-08T01:14:15.556Z,13.98
2022-12-08T01:16:43.834Z,14.04
2022-12-08T01:19:13.209Z,14.08
2022-12-08T01:21:43.292Z,13.80
2022-12-08T01:24:12.926Z,13.56
2022-12-08T01:26:41.569Z,13.65
2022-12-08T01:29:09.827Z,13.98
2022-12-08T01:31:38.613Z,13.99
2022-12-08T01:34:07.444Z,13.92
2022-12-08T01:36:37.161Z,13.59
2022-12-08T01:39:08.261Z,13.67
2022-12-08T01:41:38.594Z,13.55
2022-12-08T01:44:39.735Z,13.57
2022-12-08T01:47:07.748Z,14.06
2022-12-08T01:49:37.799Z,13.56
2022-12-08T01:52:13.567Z,13.92
2022-12-08T01:54:48.462Z,13.93
2022-12-08T01:57:21.806Z,13.70
2022-12-08T01:59:55.799Z,13.95
2022-12-08T02:02:25.282Z,13.57
2022-12-08T02:04:53.231Z,14.01
2022-12-08T02:07:22.979Z,13.94
2022-12-08T02:09:54.200Z,13.88
2022-12-08T02:12:22.291Z,14.01
2022-12-08T02:14:50.396Z,13.97
2022-12-08T02:17:33.115Z,13.74
2022-12-08T02:20:35.550Z,13.86
2022-12-08T02:23:12.352Z,13.96
2022-12-08T02:25:57.741Z,13.62
2022-12-08T02:28:45.300Z,13.58
2022-12-08T02:31:23.361Z,13.88
2022-12-08T02:34:16.885Z,13.73
2022-12-08T02:36:54.584Z,13.58
2022-12-08T02:39:30.021Z,13.95
2022-12-08T02:42:08.116Z,13.50
2022-12-08T02:44:43.079Z,13.60
2022-12-08T02:47:15.115Z,14.00
2022-12-08T02:49:44.442Z,13.52
2022-12-08T02:52:40.479Z,13.99
2022-12-08T02:55:13.887Z,13.83
2022-12-08T02:57:53.216Z,13.84
2022-12-08T03:00:23.173Z,13.95
2022-12-08T03:03:03.922Z,13.96
2022-12-08T03:05:45.227Z,13.44
2022-12-08T03:08:21.294Z,13.86
2022-12-08T03:10:55.991Z,13.47
2022-12-08T03:13:29.711Z,13.58
2022-12-08T03:15:58.067Z,13.93
2022-12-08T03:18:30.827Z,13.60
2022-12-08T03:21:01.219Z,13.42
2022-12-08T03:23:29.797Z,13.77
2022-12-08T03:26:05.054Z,13.87
2022-12-08T03:28:33.051Z,13.54
2022-12-08T03:31:06.697Z,13.54
2022-12-08T03:33:39.831Z,13.39
2022-12-08T03:36:12.090Z,13.88
2022-12-08T03:38:41.275Z,13.89
2022-12-08T03:41:21.818Z,13.36
2022-12-08T03:43:51.127Z,13.92
2022-12-08T03:48:47.979Z,13.51
2022-12-08T03:51:17.909Z,13.49
2022-12-08T03:53:46.483Z,13.91
2022-12-08T03:56:23.170Z,13.57
2022-12-08T03:58:51.235Z,13.83
2022-12-08T04:01:19.523Z,13.64
2022-12-08T04:03:47.623Z,13.97
2022-12-08T04:06:17.297Z,13.75
2022-12-08T04:08:45.412Z,13.55
2022-12-08T04:11:13.397Z,13.89
2022-12-08T04:13:42.459Z,13.48
2022-12-08T04:16:16.432Z,13.51
2022-12-08T04:18:44.807Z,13.41
2022-12-08T04:21:12.759Z,13.97
2022-12-08T04:23:42.090Z,13.76
2022-12-08T04:26:10.277Z,13.39
2022-12-08T04:28:38.537Z,13.51
2022-12-08T04:31:07.044Z,13.78
2022-12-08T04:33:36.139Z,13.81
2022-12-08T04:36:05.544Z,13.77
2022-12-08T04:38:33.568Z,13.27
2022-12-08T04:41:03.175Z,13.67
2022-12-08T04:43:31.257Z,13.46
2022-12-08T04:45:59.252Z,13.46
2022-12-08T04:48:27.328Z,13.48
2022-12-08T04:50:55.191Z,13.66
2022-12-08T04:53:23.231Z,13.35
2022-12-08T04:55:51.303Z,13.59
2022-12-08T04:58:21.665Z,13.52
2022-12-08T05:00:50.281Z,13.25
2022-12-08T05:03:20.482Z,13.36
2022-12-08T05:05:53.108Z,13.68
2022-12-08T05:08:21.027Z,13.46
2022-12-08T05:10:48.940Z,13.44
2022-12-08T05:13:16.803Z,13.40
2022-12-08T05:15:46.140Z,13.57
2022-12-08T05:18:14.029Z,13.67
2022-12-08T05:20:41.896Z,13.33
2022-12-08T05:23:09.843Z,13.26
2022-12-08T05:25:37.721Z,13.38
2022-12-08T05:28:39.553Z,13.73
2022-12-08T05:30:54.985Z,13.82
2022-12-08T05:33:22.891Z,13.50
2022-12-08T05:35:50.772Z,13.44
2022-12-08T05:38:18.684Z,13.50
2022-12-08T05:40:46.546Z,13.38
2022-12-08T05:43:14.428Z,13.31
2022-12-08T05:45:42.356Z,13.68
2022-12-08T05:48:11.774Z,13.33
2022-12-08T05:50:39.671Z,13.46
2022-12-08T05:53:07.584Z,13.63
2022-12-08T05:55:35.471Z,13.44
2022-12-08T05:58:07.809Z,13.75
2022-12-08T06:00:36.111Z,13.61
2022-12-08T06:03:04.182Z,13.28
2022-12-08T06:05:34.952Z,13.64
2022-12-08T06:08:03.192Z,13.85
2022-12-08T06:10:31.468Z,13.69
2022-12-08T06:12:59.554Z,13.39
2022-12-08T06:15:27.456Z,13.74
2022-12-08T06:17:55.325Z,13.87
2022-12-08T06:20:23.240Z,13.75
2022-12-08T06:22:52.499Z,13.30
2022-12-08T06:25:20.425Z,13.37
2022-12-08T06:27:48.360Z,13.44
2022-12-08T06:30:16.449Z,13.31
2022-12-08T06:32:44.473Z,13.56
2022-12-08T06:35:12.437Z,13.68
2022-12-08T06:37:40.335Z,13.26
2022-12-08T06:40:10.759Z,13.36
2022-12-08T06:42:44.700Z,13.49
2022-12-08T06:45:14.207Z,13.32
2022-12-08T06:47:42.671Z,13.35
2022-12-08T06:50:12.426Z,13.68
2022-12-08T06:52:49.293Z,13.31
2022-12-08T06:55:57.315Z,13.82
2022-12-08T06:58:14.097Z,13.81
2022-12-08T07:00:42.784Z,13.44
2022-12-08T07:03:11.644Z,13.84
2022-12-08T07:05:40.154Z,13.66
2022-12-08T07:08:09.489Z,13.75
2022-12-08T07:10:38.910Z,13.30
2022-12-08T07:13:06.931Z,13.59
2022-12-08T07:15:34.925Z,13.72
2022-12-08T07:18:02.812Z,13.53
2022-12-08T07:20:30.671Z,13.62
2022-12-08T07:22:58.692Z,13.57
2022-12-08T07:25:26.892Z,13.47
2022-12-08T07:27:56.147Z,13.49
2022-12-08T07:30:24.099Z,13.74
2022-12-08T07:32:52.038Z,13.74
2022-12-08T07:35:19.947Z,13.27
2022-12-08T07:37:47.846Z,13.50
2022-12-08T07:40:16.539Z,13.31
2022-12-08T07:42:44.431Z,13.38
2022-12-08T07:45:13.779Z,13.37
2022-12-08T07:47:41.656Z,13.53
2022-12-08T07:50:09.963Z,13.45
2022-12-08T07:52:37.913Z,13.24
2022-12-08T07:55:06.528Z,13.50
2022-12-08T07:57:34.544Z,13.68
2022-12-08T08:00:02.776Z,13.50
2022-12-08T08:02:41.094Z,13.62
2022-12-08T08:05:10.291Z,14.12
2022-12-08T08:07:38.378Z,13.98
2022-12-08T08:10:07.903Z,14.20
2022-12-08T08:12:35.903Z,14.12
2022-12-08T08:15:05.083Z,14.04
2022-12-08T08:17:33.101Z,14.11
2022-12-08T08:20:03.750Z,13.79
2022-12-08T08:22:31.759Z,13.73
2022-12-08T08:25:00.033Z,14.27
2022-12-08T08:27:27.920Z,15.29
2022-12-08T08:29:55.855Z,15.88
2022-12-08T08:32:23.860Z,15.72
2022-12-08T08:34:52.648Z,15.23
2022-12-08T08:37:21.989Z,15.24
2022-12-08T08:39:49.927Z,14.87
2022-12-08T08:42:17.904Z,15.47
2022-12-08T08:44:45.934Z,15.18
2022-12-08T08:47:13.950Z,14.93
2022-12-08T08:49:42.084Z,15.31
2022-12-08T08:52:11.493Z,15.05
2022-12-08T08:54:40.790Z,14.80
2022-12-08T08:57:09.847Z,14.69
2022-12-08T08:59:37.757Z,15.04
2022-12-08T09:02:05.672Z,14.70
2022-12-08T09:04:33.895Z,14.99
2022-12-08T09:07:02.146Z,14.86
2022-12-08T09:09:30.906Z,14.37
2022-12-08T09:12:00.161Z,14.67
2022-12-08T09:14:28.112Z,14.25
2022-12-08T09:16:56.169Z,14.61
2022-12-08T09:19:24.117Z,14.54
2022-12-08T09:21:52.007Z,14.13
2022-12-08T09:24:19.865Z,14.23
2022-12-08T09:26:48.340Z,14.28
2022-12-08T09:29:18.096Z,14.34
2022-12-08T09:31:46.371Z,14.14
2022-12-08T09:34:14.639Z,14.28
2022-12-08T09:36:42.632Z,14.34
2022-12-08T09:39:10.545Z,14.12
2022-12-08T09:41:48.181Z,14.14
2022-12-08T09:44:48.503Z,14.27
2022-12-08T09:47:26.717Z,14.37
2022-12-08T09:50:03.878Z,14.04
2022-12-08T09:52:36.672Z,13.78
2022-12-08T09:55:12.736Z,14.20
2022-12-08T09:57:40.673Z,13.82
2022-12-08T10:00:14.530Z,14.08
2022-12-08T10:02:43.408Z,13.96
2022-12-08T10:05:15.174Z,14.33
2022-12-08T10:07:48.401Z,14.25
2022-12-08T10:10:27.508Z,13.93
2022-12-08T10:13:00.193Z,14.12
2022-12-08T10:15:42.699Z,14.01
2022-12-08T10:18:16.098Z,14.09
2022-12-08T10:20:46.400Z,13.83
2022-12-08T10:23:32.023Z,14.15
2022-12-08T10:26:03.170Z,14.07
2022-12-08T10:28:34.087Z,13.53
2022-12-08T10:31:03.392Z,13.86
2022-12-08T10:33:34.120Z,13.87
2022-12-08T10:36:04.705Z,13.59
2022-12-08T10:38:34.844Z,13.97
2022-12-08T10:41:07.646Z,13.96
2022-12-08T10:43:37.779Z,14.01
2022-12-08T10:46:12.450Z,14.57
2022-12-08T10:48:50.519Z,15.10
2022-12-08T10:51:28.952Z,14.86
2022-12-08T10:53:57.430Z,14.78
2022-12-08T10:56:28.726Z,15.04
2022-12-08T10:59:12.809Z,14.95
2022-12-08T11:01:43.578Z,14.98
2022-12-08T11:04:16.657Z,14.86
2022-12-08T11:06:45.183Z,14.42
2022-12-08T11:09:27.200Z,14.31
2022-12-08T11:11:58.348Z,14.32
2022-12-08T11:14:28.696Z,14.67
2022-12-08T11:17:06.724Z,14.62
2022-12-08T11:19:38.737Z,14.13
2022-12-08T11:22:22.027Z,14.25
2022-12-08T11:24:58.242Z,14.50
2022-12-08T11:27:26.446Z,14.48
2022-12-08T11:29:54.431Z,14.42
2022-12-08T11:32:23.903Z,14.09
2022-12-08T11:34:57.555Z,14.45
2022-12-08T11:37:34.727Z,14.08
2022-12-08T11:40:08.462Z,14.21
2022-12-08T11:42:44.800Z,14.20
2022-12-08T11:45:18.350Z,14.31
2022-12-08T11:47:55.929Z,13.95
2022-12-08T11:50:29.448Z,14.42
2022-12-08T11:52:59.411Z,13.98
2022-12-08T11:55:38.980Z,14.29
2022-12-08T11:58:17.689Z,14.39
2022-12-08T12:00:45.664Z,13.87
2022-12-08T12:03:24.111Z,13.99
2022-12-08T12:07:08.800Z,13.82
2022-12-08T12:09:10.319Z,13.87
2022-12-08T12:12:04.422Z,14.02
2022-12-08T12:15:00.794Z,14.21
2022-12-08T12:17:42.534Z,14.15
2022-12-08T12:20:17.641Z,13.96
2022-12-08T12:22:50.376Z,14.16
2022-12-08T12:25:21.603Z,13.75
2022-12-08T12:27:51.093Z,13.76
2022-12-08T12:30:25.305Z,14.18
2022-12-08T12:32:57.881Z,14.13
2022-12-08T12:35:38.251Z,13.71
2022-12-08T12:38:29.787Z,13.73
2022-12-08T12:41:02.591Z,13.73
2022-12-08T12:43:34.031Z,14.10
2022-12-08T12:46:41.081Z,13.83
2022-12-08T12:49:51.665Z,14.16
2022-12-08T12:52:54.383Z,13.75
2022-12-08T12:55:30.954Z,14.00
2022-12-08T12:57:59.913Z,14.05
2022-12-08T13:00:29.028Z,13.70
2022-12-08T13:02:58.793Z,13.60
2022-12-08T13:05:29.928Z,14.02
2022-12-08T13:08:01.719Z,14.08
2022-12-08T13:10:32.405Z,13.68
2022-12-08T13:13:07.623Z,13.72
2022-12-08T13:15:38.850Z,13.77
2022-12-08T13:18:08.553Z,13.92
2022-12-08T13:20:43.814Z,14.38
2022-12-08T13:23:29.915Z,14.30
2022-12-08T13:26:26.196Z,14.35
2022-12-08T13:29:16.440Z,14.62
2022-12-08T13:31:50.997Z,14.42
2022-12-08T13:34:35.611Z,14.62
2022-12-08T13:37:19.862Z,14.30
2022-12-08T13:39:54.441Z,14.60
2022-12-08T13:42:30.565Z,14.24
2022-12-08T13:45:24.275Z,14.11
2022-12-08T13:52:59.833Z,14.15
2022-12-08T13:54:51.900Z,14.53
2022-12-08T13:57:02.420Z,14.18
2022-12-08T13:59:30.651Z,14.42
2022-12-08T14:02:02.375Z,14.49
2022-12-08T14:04:47.784Z,14.19
2022-12-08T14:07:18.691Z,13.98
2022-12-08T14:09:47.398Z,14.80
2022-12-08T14:12:21.663Z,14.46
2022-12-08T14:15:07.791Z,14.68
2022-12-08T14:17:35.739Z,14.76
2022-12-08T14:20:16.725Z,14.58
2022-12-08T14:22:46.361Z,14.77
2022-12-08T14:25:16.362Z,14.68
2022-12-08T14:27:47.077Z,14.64
2022-12-08T14:30:20.888Z,14.21
2022-12-08T14:32:50.935Z,14.25
2022-12-08T14:35:26.660Z,14.18
2022-12-08T14:37:58.528Z,14.14
2022-12-08T14:40:31.685Z,14.07
2022-12-08T14:43:17.030Z,14.40
2022-12-08T14:45:50.661Z,14.50
2022-12-08T14:48:23.233Z,14.50
2022-12-08T14:51:05.493Z,14.60
2022-12-08T14:53:39.968Z,14.32
2022-12-08T14:56:19.835Z,14.41
2022-12-08T14:58:50.975Z,14.58
2022-12-08T15:01:24.560Z,14.30
2022-12-08T15:03:54.657Z,14.72
2022-12-08T15:06:23.474Z,14.64
2022-12-08T15:08:59.635Z,14.25
2022-12-08T15:11:36.130Z,14.35
2022-12-08T15:14:05.477Z,14.69
2022-12-08T15:16:40.180Z,14.25
2022-12-08T15:19:23.269Z,14.79
2022-12-08T15:21:52.117Z,14.64
2022-12-08T15:24:23.333Z,14.75
2022-12-08T15:26:52.657Z,14.32
2022-12-08T15:29:24.723Z,14.42
2022-12-08T15:31:54.745Z,14.32
2022-12-08T15:34:22.788Z,14.74
2022-12-08T15:36:52.748Z,15.07
2022-12-08T15:39:29.461Z,15.24
2022-12-08T15:41:57.389Z,15.19
2022-12-08T15:44:26.872Z,15.43
2022-12-08T15:46:55.192Z,15.46
2022-12-08T15:49:24.933Z,15.81
2022-12-08T15:52:04.825Z,15.64
2022-12-08T15:54:38.434Z,15.42
2022-12-08T15:59:55.734Z,15.24
2022-12-08T16:02:25.261Z,15.23
2022-12-08T16:05:40.138Z,15.29
2022-12-08T16:07:41.571Z,14.88
2022-12-08T16:10:16.320Z,15.29
2022-12-08T16:15:59.913Z,14.66
2022-12-08T16:18:32.673Z,14.94
2022-12-08T16:21:19.047Z,14.63
2022-12-08T16:23:48.669Z,14.61
2022-12-08T16:26:44.234Z,14.60
2022-12-08T16:29:07.217Z,14.81
2022-12-08T16:31:36.691Z,14.42
2022-12-08T16:34:05.776Z,14.28
2022-12-08T16:36:33.683Z,14.42
2022-12-08T16:39:01.537Z,14.57
2022-12-08T16:41:46.793Z,14.59
2022-12-08T16:44:14.951Z,14.22
2022-12-08T16:46:44.268Z,14.30
2022-12-08T16:49:12.177Z,14.15
2022-12-08T16:51:40.238Z,13.96
2022-12-08T16:54:08.180Z,14.37
2022-12-08T16:56:36.119Z,14.39
2022-12-08T16:59:04.044Z,14.44
2022-12-08T17:01:32.028Z,14.04
2022-12-08T17:06:51.022Z,13.96
2022-12-08T17:09:18.972Z,14.16
2022-12-08T17:11:47.003Z,13.79
2022-12-08T17:14:15.411Z,14.00
2022-12-08T17:16:45.321Z,14.16
2022-12-08T17:19:15.960Z,13.76
2022-12-08T17:21:44.514Z,14.15
2022-12-08T17:24:15.810Z,14.05
2022-12-08T17:26:46.697Z,13.52
2022-12-08T17:29:14.666Z,14.10
2022-12-08T17:31:42.735Z,13.50
2022-12-08T17:34:11.697Z,13.66
2022-12-08T17:36:41.030Z,13.56
2022-12-08T17:39:14.857Z,13.95
2022-12-08T17:41:46.076Z,13.97
2022-12-08T17:44:16.259Z,13.90
2022-12-08T17:46:50.655Z,14.06
2022-12-08T17:49:23.669Z,13.51
2022-12-08T17:51:56.855Z,13.57
2022-12-08T17:54:25.379Z,13.71
2022-12-08T17:56:53.320Z,13.47
2022-12-08T17:59:21.624Z,13.63
2022-12-08T18:01:49.819Z,13.43
2022-12-08T18:04:17.782Z,13.39
2022-12-08T18:06:45.779Z,13.60
2022-12-08T18:09:15.905Z,13.75
2022-12-08T18:11:44.523Z,13.68
2022-12-08T18:14:12.655Z,13.90
2022-12-08T18:16:43.565Z,13.43
2022-12-08T18:19:12.706Z,13.95
2022-12-08T18:21:41.187Z,13.54
2022-12-08T18:24:10.095Z,13.88
2022-12-08T18:26:40.752Z,13.47
2022-12-08T18:29:08.740Z,13.82
2022-12-08T18:31:36.668Z,13.79
2022-12-08T18:34:05.016Z,13.78
2022-12-08T18:36:33.000Z,13.84
2022-12-08T18:39:04.579Z,13.86
2022-12-08T18:41:36.837Z,13.68
2022-12-08T18:44:06.145Z,13.81
2022-12-08T18:46:34.214Z,13.76
2022-12-08T18:49:02.115Z,13.80
2022-12-08T18:51:30.060Z,13.79
2022-12-08T18:53:59.640Z,13.47
2022-12-08T18:56:29.364Z,13.56
2022-12-08T18:59:03.256Z,13.39
2022-12-08T19:01:34.089Z,13.42
2022-12-08T19:06:50.941Z,13.56
2022-12-08T19:09:19.028Z,13.75
2022-12-08T19:11:46.972Z,13.83
2022-12-08T19:14:14.907Z,13.49
2022-12-08T19:16:44.464Z,13.43
2022-12-08T19:19:12.378Z,13.51
2022-12-08T19:21:46.131Z,13.69
2022-12-08T19:24:14.642Z,13.50
2022-12-08T19:26:43.237Z,13.82
2022-12-08T19:29:11.709Z,13.57
2022-12-08T19:31:39.875Z,13.47
2022-12-08T19:34:09.450Z,13.43
2022-12-08T19:36:42.351Z,13.46
2022-12-08T19:39:33.052Z,13.49
2022-12-08T19:42:18.320Z,13.56
2022-12-08T19:44:55.476Z,13.56
2022-12-08T19:47:25.160Z,13.66
2022-12-08T19:50:15.806Z,13.72
2022-12-08T19:52:44.337Z,13.88
2022-12-08T19:55:12.907Z,13.87
2022-12-08T19:57:41.334Z,13.46
2022-12-08T20:00:11.720Z,13.71
2022-12-08T20:02:40.076Z,13.29
2022-12-08T20:05:10.627Z,13.72
2022-12-08T20:07:38.980Z,13.98
2022-12-08T20:10:09.220Z,13.45
2022-12-08T20:12:37.230Z,13.71
2022-12-08T20:15:05.711Z,13.63
2022-12-08T20:17:33.714Z,13.78
2022-12-08T20:20:06.881Z,13.89
2022-12-08T20:22:37.360Z,13.57
2022-12-08T20:25:05.734Z,13.51
2022-12-08T20:27:34.544Z,13.46
2022-12-08T20:30:02.516Z,13.78
2022-12-08T20:32:30.506Z,13.54
2022-12-08T20:34:58.653Z,13.33
2022-12-08T20:37:26.669Z,13.67
2022-12-08T20:39:56.048Z,13.79
2022-12-08T20:42:24.140Z,13.57
2022-12-08T20:44:52.146Z,13.83
2022-12-08T20:47:20.226Z,13.59
2022-12-08T20:49:48.576Z,13.44
2022-12-08T20:52:16.578Z,13.87
2022-12-08T20:54:44.539Z,13.46
2022-12-08T20:57:13.942Z,13.61
2022-12-08T20:59:42.104Z,13.48
2022-12-08T21:02:11.140Z,13.48
2022-12-08T21:04:39.521Z,13.50
2022-12-08T21:07:08.935Z,13.86
2022-12-08T21:09:37.455Z,13.73
2022-12-08T21:12:05.826Z,13.47
2022-12-08T21:14:36.506Z,13.66
2022-12-08T21:17:04.826Z,13.56
2022-12-08T21:19:32.968Z,13.34
2022-12-08T21:22:00.967Z,13.37
2022-12-08T21:24:33.924Z,13.82
2022-12-08T21:27:02.997Z,13.86
2022-12-08T21:29:31.003Z,13.65
2022-12-08T21:32:00.987Z,13.66
2022-12-08T21:34:31.950Z,13.75
2022-12-08T21:37:00.044Z,13.33
2022-12-08T21:39:28.555Z,13.54
2022-12-08T21:42:13.728Z,13.64
2022-12-08T21:44:42.103Z,13.42
2022-12-08T21:47:11.506Z,13.94
2022-12-08T21:49:39.759Z,14.17
2022-12-08T21:52:07.895Z,14.26
2022-12-08T21:54:35.887Z,14.32
2022-12-08T21:57:03.870Z,14.15
2022-12-08T21:59:32.190Z,14.71
2022-12-08T22:02:00.266Z,14.36
2022-12-08T22:04:29.853Z,14.42
2022-12-08T22:06:58.073Z,14.37
2022-12-08T22:09:26.150Z,14.57
2022-12-08T22:11:54.281Z,14.68
2022-12-08T22:14:22.200Z,14.52
2022-12-08T22:16:50.321Z,14.17
2022-12-08T22:19:18.363Z,14.28
2022-12-08T22:21:47.723Z,14.16
2022-12-08T22:24:15.660Z,14.27
2022-12-08T22:26:43.873Z,14.13
2022-12-08T22:29:11.824Z,14.53
2022-12-08T22:31:39.770Z,14.62
2022-12-08T22:34:07.930Z,14.20
2022-12-08T22:36:36.371Z,14.62
2022-12-08T22:39:05.952Z,14.14
2022-12-08T22:41:34.064Z,14.14
2022-12-08T22:44:02.250Z,14.42
2022-12-08T22:46:30.377Z,14.52
2022-12-08T22:48:58.732Z,14.47
2022-12-08T22:51:26.735Z,14.20
2022-12-08T22:53:54.637Z,14.65
2022-12-08T22:56:24.141Z,14.49
2022-12-08T22:58:52.061Z,14.78
2022-12-08T23:01:25.434Z,14.41
2022-12-08T23:03:53.671Z,14.60
2022-12-08T23:06:22.120Z,14.19
2022-12-08T23:08:50.387Z,14.21
2022-12-08T23:11:18.790Z,14.43
2022-12-08T23:13:48.520Z,14.13
2022-12-08T23:16:16.933Z,14.06
2022-12-08T23:18:46.894Z,13.94
2022-12-08T23:21:17.715Z,14.12
2022-12-08T23:23:45.815Z,14.33
2022-12-08T23:26:18.113Z,14.20
2022-12-08T23:28:46.556Z,13.79
2022-12-08T23:31:16.212Z,14.00
2022-12-08T23:33:44.781Z,14.24
2022-12-08T23:36:14.802Z,14.18
2022-12-08T23:38:42.804Z,14.01
2022-12-08T23:41:14.278Z,13.86
2022-12-08T23:43:46.255Z,14.02
2022-12-08T23:46:16.976Z,14.05
2022-12-08T23:48:45.580Z,14.03
2022-12-08T23:51:14.155Z,13.48
2022-12-08T23:53:42.661Z,13.48
2022-12-08T23:56:12.885Z,13.93
2022-12-08T23:58:41.852Z,13.69
